Otsego Lake, MI

5:37 PM EST on December 04, 2016 (GMT -0500)
National Weather Service | | Change Station

Elev 1465 ft 44.91 °N, 84.72 °W | Updated 1 minute ago

Light Snow
Light Snow Mist
29.7 °F
Feels Like 24 °F
N
6.0
Wind Variable Wind from SE
Gusts 7.0 mph

Today
High -- | Low -- °F
--% Chance of Precip.
Yesterday
High -- | Low -- °F
Precip. -- in
Pressure 29.91 in
Visibility 1.0 miles
Clouds Few 600 ft
Overcast 1200 ft
Windchill 24 °F
Dew Point 28 °F
Humidity 94%
Rainfall 0.05 in
Snow Depth Not available.
8:00 AM 4:58 PM
Waxing Crescent, 26% visible
SPECI KGLR 042226Z AUTO 15006KT 1SM -SN BR FEW006 OVC012 M01/M03 A2991 RMK AO2 P0001 T10061028
Pressure 29.91 in
Visibility 1.0 miles
Clouds Few 600 ft
Overcast 1200 ft
Windchill 24 °F
Dew Point 28 °F
Humidity 94%
Rainfall 0.05 in
Snow Depth Not available.
8:00 AM 4:58 PM
Waxing Crescent, 26% visible
SPECI KGLR 042226Z AUTO 15006KT 1SM -SN BR FEW006 OVC012 M01/M03 A2991 RMK AO2 P0001 T10061028

10-Day Weather Forecast

Almanac

Astronomy

Dec. 04, 2016 Rise Set
Actual Time
Civil Twilight
Nautical Twilight
Astronomical Twilight
Moon
Length of Visible Light
Length of Day
Tomorrow will be .
, % of the Moon is Illuminated

Today's Extremes

State Highs State Lows

Community

WunderPhotos

Upload Photos

1,955,685 photos uploaded!

WunderBlog® & News

Nearby

Air Quality

  Air Quality AQ Index Pollutant
Not available.

Snow Depth

Station Depth Elevation

Earthquake Activity

City Distance Mag. Time & Date
Minimum magnitude displayed is 2.5.

Coastal Water Temperatures

Place Temperature

Stations

Nearby Weather Stations

Station Location Temp. Windchill Dew Point Humidity Wind Precip. Elev Updated Type
                   

Watches & Warnings

There are currently no watches in effect.